Time;durP1;ratioP1;P1;durP2;ratioP2;P2;SDS_P1;SDS_P2;PMS_P1;PMS_P2;Temp;Humidity;BMP_temperature;BMP_pressure;BME280_temperature;BME280_humidity;BME280_pressure;Samples;Min_cycle;Max_cycle;Signal;HPM_P1;HPM_P2
2022/02/19 00:02:14;;;;;;;5.67;2.70;;;;;;;3.82;62.95;97880.43;1769955;80;20983;-66
2022/02/19 00:04:41;;;;;;;5.78;2.62;;;;;;;3.86;62.91;97875.18;1768700;80;20932;-64
2022/02/19 00:07:07;;;;;;;3.65;2.30;;;;;;;3.87;62.58;97892.59;1702110;84;21024;-66
2022/02/19 00:09:34;;;;;;;6.58;2.67;;;;;;;3.90;62.48;97886.51;1773395;80;20986;-63
2022/02/19 00:12:01;;;;;;;6.37;3.30;;;;;;;3.94;62.30;97893.55;1772413;80;21153;-67
2022/02/19 00:14:27;;;;;;;5.90;2.72;;;;;;;3.98;61.99;97902.28;1748494;80;21487;-67
2022/02/19 00:16:53;;;;;;;4.75;2.40;;;;;;;4.03;61.75;97887.30;1761014;80;20895;-66
2022/02/19 00:19:20;;;;;;;5.60;2.95;;;;;;;4.06;61.54;97879.91;1768138;80;20939;-67
2022/02/19 00:21:47;;;;;;;4.70;2.75;;;;;;;4.08;61.52;97886.30;1765638;80;21034;-66
2022/02/19 00:24:13;;;;;;;4.25;2.47;;;;;;;4.12;61.90;97873.16;1747912;80;21199;-64
2022/02/19 00:26:40;;;;;;;4.58;2.70;;;;;;;4.13;62.46;97876.09;1759667;80;21565;-63
2022/02/19 00:29:07;;;;;;;5.58;2.60;;;;;;;4.13;62.78;97878.72;1754458;80;21462;-66
2022/02/19 00:31:34;;;;;;;5.87;2.47;;;;;;;4.15;63.23;97864.89;1762567;80;20907;-66
2022/02/19 00:34:01;;;;;;;4.53;2.40;;;;;;;4.15;63.77;97855.20;1727089;80;20903;-66
2022/02/19 00:36:28;;;;;;;5.25;2.70;;;;;;;4.18;64.22;97868.02;1754429;80;21068;-64
2022/02/19 00:38:54;;;;;;;5.05;2.85;;;;;;;4.17;64.95;97852.41;1743159;82;21415;-65
2022/02/19 00:41:21;;;;;;;5.17;2.90;;;;;;;4.14;65.50;97834.33;1749776;80;20986;-66
2022/02/19 00:43:47;;;;;;;4.28;2.55;;;;;;;4.14;66.30;97835.64;1747618;80;21610;-67
2022/02/19 00:46:13;;;;;;;4.50;2.77;;;;;;;4.11;66.78;97834.16;1745827;80;21018;-65
2022/02/19 00:48:40;;;;;;;5.80;2.92;;;;;;;4.08;67.54;97824.46;1773339;80;21063;-67
2022/02/19 00:51:06;;;;;;;5.12;2.72;;;;;;;4.03;68.34;97823.66;1762286;80;21579;-66
2022/02/19 00:53:35;;;;;;;5.05;2.70;;;;;;;4.02;68.98;97832.53;1754172;80;20873;-63
2022/02/19 00:56:02;;;;;;;4.70;3.27;;;;;;;3.99;69.74;97817.59;1739885;82;20920;-64
2022/02/19 00:58:29;;;;;;;5.58;3.12;;;;;;;3.97;70.41;97807.71;1773118;80;20917;-65
2022/02/19 01:00:55;;;;;;;4.85;2.90;;;;;;;3.91;71.77;97805.26;1770957;80;21161;-65
2022/02/19 01:03:24;;;;;;;4.72;3.10;;;;;;;3.84;75.35;97817.94;1757829;80;21565;-67
2022/02/19 01:05:50;;;;;;;6.47;3.27;;;;;;;3.79;74.40;97799.21;1771852;80;20983;-63
2022/02/19 01:08:16;;;;;;;4.85;2.30;;;;;;;3.75;74.83;97784.28;1745591;80;20870;-65
2022/02/19 01:10:43;;;;;;;5.08;2.75;;;;;;;3.72;75.85;97760.45;1743457;81;21001;-65
2022/02/19 01:13:09;;;;;;;4.85;2.92;;;;;;;3.71;76.08;97772.44;1755825;80;21260;-65
2022/02/19 01:15:36;;;;;;;5.33;2.87;;;;;;;3.68;77.39;97775.40;1762723;80;21412;-66
2022/02/19 01:18:02;;;;;;;5.05;2.50;;;;;;;3.62;78.12;97764.26;1772929;80;20933;-67
2022/02/19 01:20:29;;;;;;;7.75;3.15;;;;;;;3.56;78.69;97753.91;1742900;80;20995;-66
2022/02/19 01:22:56;;;;;;;5.00;2.80;;;;;;;3.51;79.13;97737.00;1743694;80;20923;-64
2022/02/19 01:25:22;;;;;;;4.50;2.83;;;;;;;3.48;80.24;97740.78;1743263;82;21209;-67
2022/02/19 01:27:50;;;;;;;4.03;2.70;;;;;;;3.48;80.41;97742.58;1761864;80;20949;-65
2022/02/19 01:30:17;;;;;;;5.70;2.87;;;;;;;3.46;80.83;97720.91;1758491;80;21507;-63
2022/02/19 01:32:44;;;;;;;5.92;3.25;;;;;;;3.44;81.37;97709.75;1773360;80;20939;-66
2022/02/19 01:35:10;;;;;;;4.78;2.58;;;;;;;3.42;81.98;97725.67;1743939;81;21506;-64
2022/02/19 01:37:37;;;;;;;3.65;2.47;;;;;;;3.40;82.40;97703.99;1762918;80;21142;-65
2022/02/19 01:40:06;;;;;;;4.47;2.80;;;;;;;3.41;82.90;97720.59;1772712;80;20924;-64
2022/02/19 01:42:34;;;;;;;5.17;2.62;;;;;;;3.43;82.87;97709.41;1756473;80;21446;-65
2022/02/19 01:45:01;;;;;;;5.05;3.05;;;;;;;3.43;82.84;97698.41;1756330;80;20961;-67
2022/02/19 01:47:27;;;;;;;3.95;2.20;;;;;;;3.45;82.86;97688.53;1743202;80;20931;-65
2022/02/19 01:49:54;;;;;;;4.03;2.60;;;;;;;3.47;82.80;97681.29;1755834;80;21404;-66
2022/02/19 01:52:22;;;;;;;4.45;2.62;;;;;;;3.47;82.77;97695.75;1759480;80;21008;-66
2022/02/19 01:54:48;;;;;;;4.50;2.40;;;;;;;3.47;83.05;97672.58;1728496;81;20975;-68
2022/02/19 01:57:24;;;;;;;5.17;2.47;;;;;;;3.46;83.44;97669.64;1758461;80;21054;-67
2022/02/19 01:59:55;;;;;;;3.65;2.30;;;;;;;3.48;83.74;97660.59;1725813;80;21538;-68
2022/02/19 02:02:42;;;;;;;6.33;2.72;;;;;;;3.49;84.08;97656.98;1773455;80;21235;-66
2022/02/19 02:05:20;;;;;;;3.58;2.35;;;;;;;3.50;84.23;97650.72;1743750;80;21497;-65
2022/02/19 02:07:46;;;;;;;4.58;2.22;;;;;;;3.52;84.14;97645.31;1743414;82;20933;-67
2022/02/19 02:10:13;;;;;;;4.22;2.50;;;;;;;3.52;84.05;97636.11;1741067;82;20988;-67
2022/02/19 02:12:41;;;;;;;6.03;2.27;;;;;;;3.55;83.93;97631.80;1751172;80;21286;-67
2022/02/19 02:15:29;;;;;;;4.33;2.25;;;;;;;3.53;83.79;97638.55;1763362;80;21533;-67
2022/02/19 02:17:57;;;;;;;7.78;2.95;;;;;;;3.55;83.65;97662.86;1746050;80;20972;-64
2022/02/19 02:20:26;;;;;;;3.95;2.83;;;;;;;3.57;83.68;97635.10;1744106;80;20939;-66
2022/02/19 02:22:53;;;;;;;3.65;2.72;;;;;;;3.56;83.72;97617.67;1753013;80;20893;-65
2022/02/19 02:25:31;;;;;;;4.97;2.60;;;;;;;3.59;83.75;97608.13;1743706;80;20927;-68
2022/02/19 02:27:58;;;;;;;4.90;2.62;;;;;;;3.60;83.71;97613.70;1743582;82;21060;-67
2022/02/19 02:30:25;;;;;;;5.60;2.67;;;;;;;3.59;86.25;97596.30;1743207;82;21020;-66
2022/02/19 02:32:54;;;;;;;5.25;2.70;;;;;;;3.58;87.87;97602.05;1755900;80;20941;-67
2022/02/19 02:35:20;;;;;;;4.42;2.27;;;;;;;3.59;89.04;97594.50;1769428;80;21500;-64
2022/02/19 02:37:48;;;;;;;4.20;2.30;;;;;;;3.66;90.23;97574.40;1751985;80;20937;-65
2022/02/19 02:40:15;;;;;;;3.08;2.10;;;;;;;3.66;90.30;97595.44;1746233;80;22534;-64
2022/02/19 02:42:42;;;;;;;4.65;3.05;;;;;;;3.71;88.80;97581.27;1771860;80;20920;-66
2022/02/19 02:45:12;;;;;;;3.25;2.77;;;;;;;3.76;87.32;97589.95;1770313;80;20983;-64
2022/02/19 02:47:43;;;;;;;4.45;3.00;;;;;;;3.81;86.44;97599.45;1759170;80;21470;-67
2022/02/19 02:50:10;;;;;;;4.10;2.10;;;;;;;3.83;85.34;97594.87;1760685;80;21023;-66
2022/02/19 02:52:39;;;;;;;4.72;2.60;;;;;;;3.86;84.03;97580.02;1751076;80;21140;-69
2022/02/19 02:55:07;;;;;;;4.92;2.60;;;;;;;3.89;83.21;97589.38;1751341;80;20844;-65
2022/02/19 02:57:35;;;;;;;3.08;2.60;;;;;;;3.92;82.14;97582.46;1761371;80;21454;-64
2022/02/19 03:00:04;;;;;;;4.30;2.62;;;;;;;3.94;81.69;97592.31;1756349;80;20860;-64
2022/02/19 03:02:34;;;;;;;4.05;2.62;;;;;;;3.98;81.38;97573.39;1750674;80;21430;-67
2022/02/19 03:05:03;;;;;;;4.22;2.37;;;;;;;4.03;80.93;97576.80;1748484;80;21140;-67
2022/02/19 03:07:32;;;;;;;4.08;2.87;;;;;;;4.06;80.57;97577.28;1746911;80;20931;-67
2022/02/19 03:10:00;;;;;;;4.62;3.00;;;;;;;4.10;80.05;97566.72;1742815;80;21008;-66
2022/02/19 03:12:28;;;;;;;3.98;3.12;;;;;;;4.16;79.72;97561.25;1744032;80;21008;-64
2022/02/19 03:14:54;;;;;;;3.50;2.42;;;;;;;4.19;79.11;97566.98;1744076;80;20888;-65
2022/02/19 03:17:21;;;;;;;5.05;2.75;;;;;;;4.22;78.86;97571.88;1770050;80;21219;-67
2022/02/19 03:19:48;;;;;;;5.85;2.87;;;;;;;4.26;78.30;97572.35;1756870;80;20937;-64
2022/02/19 03:22:15;;;;;;;5.17;2.60;;;;;;;4.28;77.93;97545.34;1720083;80;20985;-67
2022/02/19 03:24:43;;;;;;;5.80;3.00;;;;;;;4.30;77.46;97538.13;1761193;80;20978;-65
2022/02/19 03:27:10;;;;;;;7.12;2.67;;;;;;;4.31;77.43;97531.84;1723828;80;21577;-67
2022/02/19 03:29:37;;;;;;;6.08;3.10;;;;;;;4.32;77.12;97536.12;1756685;80;21132;-69
2022/02/19 03:32:05;;;;;;;4.95;2.77;;;;;;;4.34;76.89;97532.31;1756598;80;20880;-66
2022/02/19 03:34:32;;;;;;;7.10;2.90;;;;;;;4.40;76.69;97527.33;1761932;80;20899;-66
2022/02/19 03:36:59;;;;;;;7.80;2.98;;;;;;;4.45;76.36;97515.77;1773399;80;21028;-65
2022/02/19 03:39:26;;;;;;;4.37;2.47;;;;;;;4.50;76.04;97526.08;1735972;81;20987;-63
2022/02/19 03:41:53;;;;;;;7.37;2.75;;;;;;;4.53;75.70;97527.05;1757238;81;21218;-64
2022/02/19 03:44:21;;;;;;;6.17;2.90;;;;;;;4.58;75.22;97540.98;1747362;81;20989;-67
2022/02/19 03:46:49;;;;;;;4.62;2.58;;;;;;;4.63;75.06;97545.21;1743487;81;20935;-64
2022/02/19 03:49:34;;;;;;;4.20;2.60;;;;;;;4.68;74.63;97541.05;1734297;82;20957;-64
2022/02/19 03:52:00;;;;;;;3.47;2.27;;;;;;;4.75;74.46;97551.17;1736566;81;20941;-67
2022/02/19 03:54:27;;;;;;;4.95;2.70;;;;;;;4.83;74.25;97537.92;1761460;81;21222;-66
2022/02/19 03:56:54;;;;;;;5.45;2.83;;;;;;;4.88;73.84;97528.97;1755841;81;21489;-64
2022/02/19 03:59:20;;;;;;;4.42;2.72;;;;;;;4.94;73.56;97538.80;1734495;82;20937;-67
2022/02/19 04:01:47;;;;;;;3.55;2.10;;;;;;;4.97;73.35;97548.98;1743114;81;20979;-64
2022/02/19 04:04:16;;;;;;;5.03;2.83;;;;;;;5.02;73.15;97551.06;1737299;81;20885;-67
2022/02/19 04:06:43;;;;;;;3.98;2.55;;;;;;;5.06;73.16;97537.82;1763374;81;21123;-65
2022/02/19 04:09:09;;;;;;;4.75;2.62;;;;;;;5.09;73.87;97543.23;1760537;81;20955;-65
2022/02/19 04:11:38;;;;;;;4.22;3.02;;;;;;;5.12;73.63;97551.59;1745583;81;21529;-65
2022/02/19 04:14:05;;;;;;;4.47;2.70;;;;;;;5.16;73.40;97562.61;1747356;81;21394;-66
2022/02/19 04:16:50;;;;;;;3.62;2.25;;;;;;;5.19;73.59;97551.70;1724139;81;21043;-66
2022/02/19 04:19:18;;;;;;;3.75;2.65;;;;;;;5.21;73.58;97554.97;1737035;81;21215;-65
2022/02/19 04:21:44;;;;;;;5.42;2.65;;;;;;;5.21;73.42;97539.16;1735874;81;20930;-66
2022/02/19 04:24:13;;;;;;;4.00;2.70;;;;;;;5.21;73.37;97543.10;1752092;81;20924;-66
2022/02/19 04:26:41;;;;;;;3.98;2.33;;;;;;;5.22;73.31;97541.59;1734313;82;20984;-66
2022/02/19 04:29:07;;;;;;;5.55;2.77;;;;;;;5.26;73.37;97536.78;1735064;81;20854;-68
2022/02/19 04:31:40;;;;;;;4.80;2.70;;;;;;;5.29;73.38;97529.83;1761947;81;22355;-65
2022/02/19 04:34:08;;;;;;;6.37;2.95;;;;;;;5.32;73.39;97532.10;1750847;81;21006;-67
2022/02/19 04:36:35;;;;;;;4.08;2.70;;;;;;;5.38;73.29;97544.53;1763170;81;20892;-65
2022/02/19 04:39:01;;;;;;;2.98;2.20;;;;;;;5.43;73.17;97532.92;1733363;82;20975;-67
2022/02/19 04:41:28;;;;;;;4.72;2.87;;;;;;;5.52;73.01;97537.10;1740958;80;20943;-65
2022/02/19 04:43:55;;;;;;;5.95;2.77;;;;;;;5.62;72.63;97529.71;1752028;80;21153;-67
2022/02/19 04:46:21;;;;;;;5.30;2.27;;;;;;;5.72;72.32;97532.86;1759304;80;21357;-64
2022/02/19 04:48:48;;;;;;;4.67;2.58;;;;;;;5.80;72.01;97527.47;1752211;80;21071;-66
2022/02/19 04:51:14;;;;;;;3.52;2.47;;;;;;;5.88;71.68;97533.98;1758712;80;20987;-67
2022/02/19 04:53:41;;;;;;;5.12;1.95;;;;;;;5.96;71.17;97543.10;1758355;80;20975;-68
2022/02/19 04:56:07;;;;;;;4.37;2.40;;;;;;;6.02;70.71;97537.58;1744455;80;21079;-70
2022/02/19 04:58:36;;;;;;;3.45;2.40;;;;;;;6.06;70.37;97533.05;1737662;80;20876;-68
2022/02/19 05:01:03;;;;;;;4.53;2.50;;;;;;;6.11;69.92;97545.17;1765826;80;20915;-64
2022/02/19 05:03:32;;;;;;;7.10;2.62;;;;;;;6.14;69.59;97537.38;1739237;82;20940;-65
2022/02/19 05:06:07;;;;;;;5.12;2.42;;;;;;;6.18;69.40;97551.83;1735664;80;20910;-66
2022/02/19 05:08:36;;;;;;;4.30;2.00;;;;;;;6.20;69.06;97553.27;1772815;80;21116;-64
2022/02/19 05:11:02;;;;;;;4.33;2.50;;;;;;;6.23;68.75;97552.59;1773117;80;20844;-64
2022/02/19 05:13:35;;;;;;;5.35;2.62;;;;;;;6.24;68.51;97541.84;1742432;82;20909;-67
2022/02/19 05:16:01;;;;;;;2.95;2.00;;;;;;;6.25;68.39;97541.34;1747258;80;20888;-66
2022/02/19 05:18:32;;;;;;;4.65;2.52;;;;;;;6.27;68.33;97553.34;1754285;80;20959;-67
2022/02/19 05:20:59;;;;;;;6.75;2.15;;;;;;;6.30;68.22;97545.05;1754528;80;21316;-65
2022/02/19 05:23:27;;;;;;;4.47;2.00;;;;;;;6.33;68.13;97552.59;1749439;80;20939;-63
2022/02/19 05:25:53;;;;;;;5.83;2.33;;;;;;;6.37;68.04;97553.84;1767573;80;21504;-67
2022/02/19 05:28:22;;;;;;;4.08;2.15;;;;;;;6.43;67.96;97553.58;1759899;80;21012;-65
2022/02/19 05:30:48;;;;;;;6.53;2.58;;;;;;;6.48;67.83;97563.07;1772511;80;20946;-65
2022/02/19 05:33:34;;;;;;;4.87;2.33;;;;;;;6.53;67.73;97553.58;1758167;80;21162;-65
2022/02/19 05:36:01;;;;;;;6.12;2.70;;;;;;;6.58;67.60;97571.48;1772765;80;20982;-65
2022/02/19 05:38:28;;;;;;;5.20;2.92;;;;;;;6.63;67.50;97571.23;1766009;80;21018;-66
2022/02/19 05:40:56;;;;;;;6.17;2.22;;;;;;;6.68;67.41;97569.33;1770682;81;20960;-68
2022/02/19 05:43:23;;;;;;;5.37;2.50;;;;;;;6.72;67.26;97556.06;1767657;80;21000;-66
2022/02/19 05:45:49;;;;;;;5.72;2.77;;;;;;;6.77;67.16;97566.87;1773415;80;21132;-65
2022/02/19 05:48:17;;;;;;;8.70;2.90;;;;;;;6.82;67.03;97576.36;1749799;80;21014;-65
2022/02/19 05:50:59;;;;;;;7.62;2.83;;;;;;;6.86;66.92;97573.62;1754671;80;21580;-67
2022/02/19 05:53:27;;;;;;;5.55;2.77;;;;;;;6.90;66.80;97580.17;1756850;80;21101;-67
2022/02/19 05:55:54;;;;;;;8.38;3.05;;;;;;;6.95;66.69;97596.78;1772919;80;21469;-66
2022/02/19 05:58:21;;;;;;;5.80;3.17;;;;;;;6.98;66.61;97589.78;1749661;80;21193;-64
2022/02/19 06:00:55;;;;;;;4.03;2.30;;;;;;;7.02;66.51;97589.70;1764128;80;20985;-67
2022/02/19 06:03:21;;;;;;;3.30;2.30;;;;;;;7.05;66.40;97590.64;1769426;80;21751;-69
2022/02/19 06:05:48;;;;;;;3.45;2.30;;;;;;;7.10;66.32;97597.48;1772801;80;20962;-66
2022/02/19 06:08:16;;;;;;;5.15;2.52;;;;;;;7.12;66.25;97601.56;1772592;80;21011;-69
2022/02/19 06:10:42;;;;;;;4.55;2.35;;;;;;;7.17;66.17;97602.33;1771650;80;21551;-66
2022/02/19 06:13:10;;;;;;;6.35;3.77;;;;;;;7.21;66.17;97610.17;1748227;80;20932;-65
2022/02/19 06:15:38;;;;;;;8.18;5.10;;;;;;;7.25;66.13;97609.59;1762405;80;21545;-65
2022/02/19 06:18:12;;;;;;;10.65;4.40;;;;;;;7.31;66.08;97633.13;1758707;80;21553;-67
2022/02/19 06:20:41;;;;;;;9.98;5.03;;;;;;;7.37;66.01;97640.30;1743458;80;21476;-67
2022/02/19 06:23:10;;;;;;;8.95;5.40;;;;;;;7.40;65.92;97647.84;1745439;80;21099;-65
2022/02/19 06:25:38;;;;;;;8.63;4.47;;;;;;;7.43;66.00;97672.56;1756147;80;21007;-67
2022/02/19 06:28:06;;;;;;;8.95;5.58;;;;;;;7.45;66.30;97658.66;1769058;80;20892;-68
2022/02/19 06:30:34;;;;;;;7.78;4.75;;;;;;;7.48;66.83;97671.52;1764918;80;20896;-64
2022/02/19 06:33:03;;;;;;;7.97;4.05;;;;;;;7.51;67.32;97671.63;1748922;80;21370;-66
2022/02/19 06:35:31;;;;;;;7.20;4.53;;;;;;;7.52;67.64;97667.95;1756777;81;21109;-67
2022/02/19 06:37:59;;;;;;;12.00;4.87;;;;;;;7.52;67.53;97681.17;1769969;80;21019;-65
2022/02/19 06:40:25;;;;;;;7.70;3.70;;;;;;;7.52;67.44;97684.65;1753382;80;21058;-71
2022/02/19 06:42:52;;;;;;;6.00;3.47;;;;;;;7.53;67.30;97674.89;1763538;81;21450;-68
2022/02/19 06:45:23;;;;;;;7.00;2.95;;;;;;;7.54;67.08;97683.94;1749623;80;20967;-67
2022/02/19 06:47:49;;;;;;;7.20;3.50;;;;;;;7.57;66.87;97696.79;1748949;80;21161;-66
2022/02/19 06:50:17;;;;;;;8.93;4.62;;;;;;;7.63;66.58;97678.00;1730717;80;20948;-66
2022/02/19 06:52:45;;;;;;;6.30;3.77;;;;;;;7.69;66.09;97697.08;1740686;80;20945;-65
2022/02/19 06:55:12;;;;;;;5.05;3.20;;;;;;;7.76;65.79;97704.05;1748677;80;20924;-66
2022/02/19 06:57:41;;;;;;;8.28;4.55;;;;;;;7.84;65.77;97697.77;1747014;80;21017;-67
2022/02/19 07:00:10;;;;;;;9.33;4.65;;;;;;;7.90;65.74;97703.08;1747059;80;21139;-69
2022/02/19 07:02:38;;;;;;;7.45;4.12;;;;;;;7.97;65.66;97703.12;1747818;80;20970;-66
2022/02/19 07:05:06;;;;;;;8.35;4.22;;;;;;;8.02;65.34;97716.59;1758033;80;20891;-65
2022/02/19 07:07:51;;;;;;;5.87;3.20;;;;;;;8.08;64.87;97709.99;1767113;80;20973;-66
2022/02/19 07:10:18;;;;;;;7.75;4.28;;;;;;;8.15;64.44;97702.09;1742265;80;21095;-65
2022/02/19 07:12:45;;;;;;;8.53;4.78;;;;;;;8.22;64.26;97709.55;1753282;81;21957;-68
2022/02/19 07:15:12;;;;;;;5.55;3.95;;;;;;;8.27;64.01;97716.42;1768548;80;21006;-69
2022/02/19 07:17:49;;;;;;;9.28;4.70;;;;;;;8.31;63.56;97714.20;1700865;83;20955;-68
2022/02/19 07:20:15;;;;;;;11.33;7.42;;;;;;;8.35;63.26;97727.35;1744442;80;21513;-64
2022/02/19 07:22:43;;;;;;;6.65;4.10;;;;;;;8.38;63.04;97738.38;1752620;80;21066;-67
2022/02/19 07:25:10;;;;;;;8.53;5.00;;;;;;;8.40;62.91;97730.22;1742638;80;21851;-66
2022/02/19 07:27:39;;;;;;;7.62;4.30;;;;;;;8.42;62.84;97724.23;1735976;80;20955;-66
2022/02/19 07:30:08;;;;;;;5.53;4.30;;;;;;;8.45;62.65;97713.22;1746837;80;20952;-67
2022/02/19 07:32:36;;;;;;;7.95;4.50;;;;;;;8.46;62.67;97702.94;1733812;80;20895;-68
2022/02/19 07:35:08;;;;;;;8.93;4.78;;;;;;;8.47;62.58;97713.33;1741560;82;21000;-68
2022/02/19 07:37:36;;;;;;;7.95;3.83;;;;;;;8.48;62.46;97713.65;1743245;82;20873;-62
2022/02/19 07:40:04;;;;;;;6.92;3.90;;;;;;;8.49;62.43;97736.50;1735090;80;21004;-63
2022/02/19 07:42:32;;;;;;;5.55;2.67;;;;;;;8.51;62.35;97727.83;1713054;82;20980;-65
2022/02/19 07:45:13;;;;;;;4.28;2.72;;;;;;;8.54;62.22;97716.02;1675487;82;21536;-66
2022/02/19 07:47:48;;;;;;;4.85;2.85;;;;;;;8.57;62.22;97711.14;1688189;82;20966;-67
2022/02/19 07:59:01;;;;;;;4.80;2.85;;;;;;;8.77;61.90;97744.81;1710876;82;20962;-62
2022/02/19 08:01:27;;;;;;;4.20;2.62;;;;;;;8.79;61.92;97736.14;1716299;82;20878;-64
2022/02/19 08:03:54;;;;;;;4.37;2.20;;;;;;;8.84;61.91;97729.76;1725625;82;21167;-63
2022/02/19 08:06:21;;;;;;;5.03;2.80;;;;;;;8.90;61.68;97717.00;1718405;82;21518;-67
2022/02/19 08:08:47;;;;;;;3.77;2.62;;;;;;;8.96;61.52;97705.09;1710884;82;20911;-67
2022/02/19 08:11:16;;;;;;;5.30;2.60;;;;;;;9.03;61.35;97706.41;1731056;82;20949;-66
2022/02/19 08:13:42;;;;;;;5.95;2.83;;;;;;;9.09;61.06;97709.08;1723858;82;21010;-68
2022/02/19 08:16:09;;;;;;;4.58;2.90;;;;;;;9.14;60.81;97699.17;1715555;82;22349;-71
2022/02/19 08:18:37;;;;;;;5.28;2.60;;;;;;;9.18;60.52;97703.04;1731843;82;21057;-70
2022/02/19 08:21:05;;;;;;;4.95;2.58;;;;;;;9.24;60.45;97692.95;1729415;82;21054;-69
2022/02/19 08:23:33;;;;;;;5.15;2.87;;;;;;;9.33;60.06;97691.73;1730444;82;21010;-69
2022/02/19 08:25:59;;;;;;;6.33;3.02;;;;;;;9.44;59.62;97695.60;1727187;82;21022;-67
2022/02/19 08:28:26;;;;;;;5.00;2.90;;;;;;;9.57;59.46;97704.34;1720544;82;21126;-69
2022/02/19 08:30:52;;;;;;;7.62;3.87;;;;;;;9.74;59.10;97704.23;1730085;81;21057;-69
2022/02/19 08:33:19;;;;;;;6.33;2.92;;;;;;;9.94;58.60;97706.83;1724439;82;21571;-66
2022/02/19 08:35:46;;;;;;;4.67;3.50;;;;;;;10.13;57.57;97700.67;1733192;82;21019;-65
2022/02/19 08:38:12;;;;;;;5.08;2.92;;;;;;;10.30;56.97;97695.68;1725927;82;21034;-68
2022/02/19 08:40:40;;;;;;;4.60;2.85;;;;;;;10.47;56.33;97707.48;1732575;80;21120;-65
2022/02/19 08:43:06;;;;;;;4.83;2.90;;;;;;;10.71;55.76;97705.92;1738637;80;20943;-64
2022/02/19 08:45:33;;;;;;;4.05;2.87;;;;;;;10.96;54.86;97704.11;1727289;80;20964;-64
2022/02/19 08:48:04;;;;;;;4.80;2.83;;;;;;;11.10;53.88;97708.33;1746159;80;22054;-61
2022/02/19 08:50:34;;;;;;;6.37;2.72;;;;;;;11.26;53.03;97697.16;1730387;80;21485;-60
2022/02/19 08:53:00;;;;;;;3.58;2.42;;;;;;;11.48;52.24;97706.87;1730323;80;21134;-62
2022/02/19 08:55:29;;;;;;;4.95;2.37;;;;;;;11.63;51.51;97696.69;1729394;80;21002;-63
2022/02/19 08:57:56;;;;;;;4.53;2.05;;;;;;;11.81;50.88;97707.41;1728514;80;21073;-61
2022/02/19 09:00:22;;;;;;;3.27;2.05;;;;;;;11.95;49.75;97710.23;1744235;80;21003;-63
2022/02/19 09:02:49;;;;;;;4.08;2.45;;;;;;;12.10;49.16;97725.85;1738070;80;20983;-62
2022/02/19 09:05:17;;;;;;;3.90;2.47;;;;;;;12.21;48.92;97715.79;1744161;80;21132;-63
2022/02/19 09:07:44;;;;;;;5.05;2.77;;;;;;;12.34;48.77;97729.78;1734957;81;20948;-65
2022/02/19 09:10:13;;;;;;;4.97;2.42;;;;;;;12.58;48.02;97733.91;1739387;81;20998;-69
2022/02/19 09:12:49;;;;;;;17.30;9.45;;;;;;;12.70;47.70;97730.25;1727507;82;20944;-66
2022/02/19 09:15:18;;;;;;;6.40;4.55;;;;;;;12.97;47.87;97732.86;1736898;81;20982;-69
2022/02/19 09:17:45;;;;;;;5.42;3.40;;;;;;;13.16;47.14;97743.00;1736605;81;21178;-69
2022/02/19 09:20:12;;;;;;;3.95;2.90;;;;;;;13.26;46.35;97720.55;1735390;82;20969;-69
2022/02/19 09:22:39;;;;;;;4.10;2.30;;;;;;;13.28;45.66;97733.66;1728438;80;20986;-68
2022/02/19 09:25:08;;;;;;;3.95;2.42;;;;;;;13.21;45.46;97731.11;1727458;82;20915;-69
2022/02/19 09:27:34;;;;;;;5.15;2.85;;;;;;;13.13;45.28;97730.61;1738963;82;20962;-69
2022/02/19 09:30:03;;;;;;;3.55;2.27;;;;;;;12.93;44.59;97734.88;1731742;81;22360;-69
2022/02/19 09:32:29;;;;;;;4.35;2.42;;;;;;;12.74;45.19;97735.96;1730034;82;20939;-68
2022/02/19 09:34:56;;;;;;;3.90;2.27;;;;;;;12.58;45.40;97741.91;1738196;80;21085;-68
2022/02/19 09:37:23;;;;;;;6.45;2.92;;;;;;;12.44;45.30;97737.77;1734279;80;20998;-70
2022/02/19 09:39:50;;;;;;;4.72;3.20;;;;;;;12.25;45.14;97744.98;1741037;80;21038;-70
2022/02/19 09:42:17;;;;;;;6.40;2.83;;;;;;;12.47;45.06;97750.14;1760209;80;22595;-69
2022/02/19 09:44:45;;;;;;;3.50;2.40;;;;;;;12.85;45.16;97762.67;1749621;80;20907;-70
2022/02/19 09:47:11;;;;;;;3.45;2.58;;;;;;;13.49;44.49;97744.63;1750374;80;21030;-71
2022/02/19 09:49:37;;;;;;;3.85;2.10;;;;;;;14.23;42.62;97751.92;1759791;80;21124;-72
2022/02/19 09:52:05;;;;;;;4.08;2.47;;;;;;;14.88;41.86;97753.55;1752864;80;21045;-69
2022/02/19 09:54:31;;;;;;;5.30;2.80;;;;;;;15.36;40.94;97760.58;1760897;80;21147;-66
2022/02/19 09:56:58;;;;;;;3.15;2.10;;;;;;;15.76;39.93;97758.61;1748738;80;20976;-68
2022/02/19 09:59:26;;;;;;;5.95;2.50;;;;;;;15.93;39.57;97754.56;1752349;80;20888;-67
2022/02/19 10:02:04;;;;;;;6.12;2.80;;;;;;;16.01;39.10;97754.97;1752296;80;21025;-67
2022/02/19 10:04:31;;;;;;;4.50;2.75;;;;;;;16.14;38.52;97761.06;1764902;80;20994;-69
2022/02/19 10:07:02;;;;;;;4.65;2.30;;;;;;;16.58;37.56;97778.31;1768254;80;21402;-67
2022/02/19 10:09:28;;;;;;;7.45;2.65;;;;;;;16.97;37.24;97758.11;1771352;80;21046;-68
2022/02/19 10:11:55;;;;;;;4.60;1.70;;;;;;;17.49;35.76;97768.58;1769381;80;20936;-69
2022/02/19 10:14:31;;;;;;;2.40;1.30;;;;;;;17.83;33.98;97751.69;1715012;80;20943;-68
2022/02/19 10:17:18;;;;;;;2.90;1.15;;;;;;;17.99;32.20;97747.22;1750668;80;21101;-65
2022/02/19 10:20:01;;;;;;;3.25;2.05;;;;;;;17.63;31.21;97760.39;1741356;80;21158;-68
2022/02/19 10:22:35;;;;;;;7.47;1.90;;;;;;;16.86;31.59;97765.77;1735035;80;20969;-66
2022/02/19 10:25:12;;;;;;;2.58;1.30;;;;;;;16.05;31.75;97772.73;1771895;80;21565;-68
2022/02/19 10:28:00;;;;;;;4.90;2.10;;;;;;;15.33;31.02;97776.61;1758114;80;21077;-66
2022/02/19 10:30:26;;;;;;;4.67;2.50;;;;;;;14.56;32.51;97775.41;1765916;80;20880;-67
2022/02/19 10:32:56;;;;;;;3.42;2.20;;;;;;;14.11;33.16;97786.41;1754017;80;21221;-68
2022/02/19 10:35:35;;;;;;;3.45;1.35;;;;;;;14.03;33.59;97786.25;1760956;80;20914;-66
2022/02/19 10:38:13;;;;;;;4.22;1.70;;;;;;;14.22;33.25;97797.64;1764532;80;20935;-65
2022/02/19 10:40:49;;;;;;;2.22;1.35;;;;;;;14.38;33.46;97794.29;1756553;80;21756;-67
2022/02/19 10:43:24;;;;;;;3.85;2.30;;;;;;;14.64;33.01;97791.10;1768164;80;20931;-67
2022/02/19 10:45:57;;;;;;;11.95;2.55;;;;;;;14.95;34.08;97797.05;1764519;80;21130;-73
2022/02/19 10:48:26;;;;;;;4.55;2.05;;;;;;;15.34;33.67;97795.66;1749732;80;21535;-67
2022/02/19 10:50:53;;;;;;;5.20;1.80;;;;;;;15.77;32.77;97795.63;1759922;80;21041;-66
2022/02/19 10:53:25;;;;;;;3.20;1.70;;;;;;;16.06;31.87;97784.54;1744797;80;21915;-65
2022/02/19 10:55:56;;;;;;;4.53;1.57;;;;;;;16.21;31.81;97812.14;1753295;80;21173;-66
2022/02/19 10:58:23;;;;;;;5.35;1.65;;;;;;;16.14;31.22;97796.72;1761678;80;21059;-66
2022/02/19 11:00:49;;;;;;;5.05;1.22;;;;;;;15.87;30.58;97814.55;1758865;80;20939;-67
2022/02/19 11:03:16;;;;;;;5.47;2.22;;;;;;;15.66;29.32;97817.42;1771461;80;20938;-66
2022/02/19 11:05:43;;;;;;;3.52;1.95;;;;;;;15.57;28.18;97807.33;1767774;80;20994;-70
2022/02/19 11:08:10;;;;;;;3.47;2.27;;;;;;;15.41;28.41;97819.61;1768252;80;20982;-74
2022/02/19 11:10:37;;;;;;;8.75;4.67;;;;;;;15.41;29.14;97831.67;1770572;80;21075;-74
2022/02/19 11:13:05;;;;;;;5.70;2.33;;;;;;;15.50;32.20;97824.09;1758186;80;20979;-67
2022/02/19 11:15:31;;;;;;;5.33;1.77;;;;;;;15.70;30.83;97841.34;1771226;80;20879;-68
2022/02/19 11:17:58;;;;;;;5.33;2.20;;;;;;;15.74;29.83;97825.08;1769920;80;21502;-68
2022/02/19 11:20:25;;;;;;;2.67;1.27;;;;;;;15.76;29.93;97828.84;1768961;80;20940;-69
2022/02/19 11:22:54;;;;;;;5.22;1.60;;;;;;;15.80;29.81;97827.31;1767494;80;21546;-70
2022/02/19 11:25:23;;;;;;;6.10;1.80;;;;;;;15.85;30.16;97830.08;1768943;80;20947;-71
2022/02/19 11:28:02;;;;;;;3.47;1.77;;;;;;;15.88;29.66;97822.34;1762259;80;20947;-70
2022/02/19 11:30:31;;;;;;;2.47;1.05;;;;;;;15.82;29.85;97842.63;1755175;80;21013;-73
2022/02/19 11:32:59;;;;;;;7.08;1.12;;;;;;;15.73;29.88;97834.16;1756151;80;20888;-70
2022/02/19 11:35:41;;;;;;;3.65;1.12;;;;;;;15.71;29.89;97821.53;1751573;80;21532;-70
2022/02/19 11:38:27;;;;;;;5.42;1.05;;;;;;;15.66;30.02;97826.81;1758025;80;21528;-69
2022/02/19 11:41:02;;;;;;;5.20;1.72;;;;;;;15.68;29.98;97831.39;1737535;80;20912;-66
2022/02/19 11:43:40;;;;;;;4.87;1.67;;;;;;;15.69;29.92;97833.55;1753611;80;21050;-66
2022/02/19 11:46:19;;;;;;;4.67;1.50;;;;;;;15.58;30.00;97816.48;1751312;81;27064;-66
2022/02/19 11:48:47;;;;;;;3.02;1.20;;;;;;;15.50;29.56;97836.97;1746308;81;21884;-66
2022/02/19 11:51:27;;;;;;;2.35;1.52;;;;;;;15.34;29.62;97836.37;1750123;81;20986;-63
2022/02/19 11:54:10;;;;;;;5.90;1.98;;;;;;;15.27;30.25;97833.85;1756999;81;21505;-67
2022/02/19 11:56:39;;;;;;;7.33;2.47;;;;;;;15.34;29.96;97835.85;1742581;80;20908;-68